Time;durP1;ratioP1;P1;durP2;ratioP2;P2;SDS_P1;SDS_P2;PMS_P1;PMS_P2;Temp;Humidity;BMP_temperature;BMP_pressure;BME280_temperature;BME280_humidity;BME280_pressure;Samples;Min_cycle;Max_cycle;Signal;HPM_P1;HPM_P2
2022/07/26 00:01:23;;;;;;;;;1.00;1.00;;;;;;;;5021618;28;51079;-64
2022/07/26 00:03:49;;;;;;;;;1.00;1.00;;;;;;;;5034172;28;51129;-64
2022/07/26 00:06:14;;;;;;;;;1.33;1.33;;;;;;;;5034549;28;51035;-64
2022/07/26 00:08:40;;;;;;;;;2.33;2.00;;;;;;;;5034026;28;51135;-65
2022/07/26 00:11:05;;;;;;;;;1.00;1.00;;;;;;;;5014303;28;51752;-66
2022/07/26 00:13:30;;;;;;;;;2.00;1.67;;;;;;;;5014423;28;51020;-65
2022/07/26 00:15:56;;;;;;;;;1.00;1.00;;;;;;;;5009375;28;50969;-64
2022/07/26 00:18:21;;;;;;;;;1.33;1.00;;;;;;;;5025164;28;51243;-64
2022/07/26 00:20:47;;;;;;;;;1.33;1.33;;;;;;;;5030877;28;50953;-64
2022/07/26 00:23:12;;;;;;;;;1.33;1.33;;;;;;;;5013657;28;51226;-63
2022/07/26 00:25:38;;;;;;;;;1.67;1.67;;;;;;;;5014278;28;51033;-64
2022/07/26 00:28:03;;;;;;;;;2.00;1.33;;;;;;;;5014411;28;50907;-65
2022/07/26 00:30:28;;;;;;;;;1.00;1.00;;;;;;;;5013966;28;50938;-65
2022/07/26 00:32:54;;;;;;;;;2.00;2.00;;;;;;;;5013001;28;51043;-65
2022/07/26 00:35:19;;;;;;;;;1.33;1.00;;;;;;;;5014147;28;50878;-63
2022/07/26 00:37:45;;;;;;;;;1.00;1.00;;;;;;;;5013996;28;51001;-65
2022/07/26 00:40:10;;;;;;;;;2.00;2.00;;;;;;;;5012452;28;51174;-65
2022/07/26 00:42:36;;;;;;;;;2.00;2.00;;;;;;;;5013789;28;51143;-64
2022/07/26 00:45:01;;;;;;;;;1.00;1.00;;;;;;;;5013256;28;50988;-65
2022/07/26 00:47:27;;;;;;;;;2.00;2.00;;;;;;;;5014313;28;51149;-64
2022/07/26 00:49:52;;;;;;;;;1.00;1.00;;;;;;;;5013785;28;51006;-64
2022/07/26 00:52:17;;;;;;;;;3.00;2.00;;;;;;;;5015680;28;51160;-64
2022/07/26 00:54:44;;;;;;;;;1.00;1.00;;;;;;;;5015076;28;51089;-64
2022/07/26 00:57:10;;;;;;;;;2.00;1.00;;;;;;;;5012823;28;51314;-64
2022/07/26 00:59:35;;;;;;;;;2.00;2.00;;;;;;;;5013498;28;51002;-63
2022/07/26 01:02:01;;;;;;;;;1.00;1.00;;;;;;;;5011244;28;50961;-65
2022/07/26 01:04:27;;;;;;;;;1.00;1.00;;;;;;;;5014351;28;51183;-65
2022/07/26 01:06:53;;;;;;;;;3.00;2.33;;;;;;;;5014155;28;50858;-65
2022/07/26 01:09:18;;;;;;;;;4.67;2.67;;;;;;;;5012898;28;51647;-65
2022/07/26 01:11:44;;;;;;;;;2.00;2.00;;;;;;;;5014222;28;50983;-65
2022/07/26 01:14:09;;;;;;;;;1.33;1.33;;;;;;;;5014980;28;51025;-65
2022/07/26 01:16:34;;;;;;;;;1.00;1.00;;;;;;;;5005285;28;51041;-65
2022/07/26 01:19:00;;;;;;;;;0.33;0.33;;;;;;;;5015181;28;51339;-65
2022/07/26 01:21:29;;;;;;;;;1.00;1.00;;;;;;;;5014721;28;51227;-65
2022/07/26 01:23:54;;;;;;;;;1.67;1.00;;;;;;;;5027488;28;51237;-65
2022/07/26 01:26:19;;;;;;;;;0.00;0.00;;;;;;;;5015647;28;51290;-65
2022/07/26 01:28:45;;;;;;;;;2.00;1.00;;;;;;;;5015109;28;52015;-64
2022/07/26 01:31:10;;;;;;;;;1.00;1.00;;;;;;;;5019603;28;51202;-65
2022/07/26 01:33:35;;;;;;;;;2.33;2.00;;;;;;;;5012616;28;51087;-65
2022/07/26 01:36:01;;;;;;;;;2.00;1.00;;;;;;;;5013619;28;51052;-64
2022/07/26 01:38:26;;;;;;;;;1.00;1.00;;;;;;;;5013294;28;51006;-64
2022/07/26 01:40:51;;;;;;;;;1.00;1.00;;;;;;;;5013540;28;50958;-65
2022/07/26 01:43:16;;;;;;;;;0.33;0.33;;;;;;;;5013312;28;51263;-64
2022/07/26 01:45:42;;;;;;;;;0.33;0.33;;;;;;;;5012159;28;51242;-64
2022/07/26 01:48:07;;;;;;;;;1.00;1.00;;;;;;;;5012819;28;51311;-64
2022/07/26 01:50:33;;;;;;;;;1.67;1.67;;;;;;;;5017139;28;50815;-64
2022/07/26 01:52:58;;;;;;;;;0.67;0.67;;;;;;;;5017427;28;51123;-64
2022/07/26 01:55:23;;;;;;;;;1.00;1.00;;;;;;;;5033049;28;51364;-64
2022/07/26 01:57:48;;;;;;;;;1.67;1.00;;;;;;;;5012972;28;51051;-64
2022/07/26 02:00:14;;;;;;;;;0.67;0.67;;;;;;;;5012435;28;51143;-64
2022/07/26 02:02:39;;;;;;;;;2.00;2.00;;;;;;;;5011398;28;51251;-64
2022/07/26 02:05:04;;;;;;;;;1.00;1.00;;;;;;;;5013155;28;51114;-64
2022/07/26 02:07:31;;;;;;;;;1.00;1.00;;;;;;;;5014024;28;52860;-64
2022/07/26 02:09:57;;;;;;;;;1.00;1.00;;;;;;;;5031588;28;51096;-65
2022/07/26 02:12:22;;;;;;;;;1.00;1.00;;;;;;;;5032370;28;50910;-64
2022/07/26 02:14:47;;;;;;;;;0.33;0.33;;;;;;;;5032828;28;51114;-65
2022/07/26 02:17:13;;;;;;;;;2.00;2.00;;;;;;;;5021895;28;51942;-65
2022/07/26 02:19:38;;;;;;;;;2.00;1.00;;;;;;;;5032446;28;51275;-65
2022/07/26 02:22:04;;;;;;;;;1.00;1.00;;;;;;;;5031293;28;51042;-65
2022/07/26 02:24:29;;;;;;;;;2.00;2.00;;;;;;;;5014657;28;50932;-64
2022/07/26 02:26:55;;;;;;;;;1.00;1.00;;;;;;;;5032136;28;52010;-63
2022/07/26 02:29:20;;;;;;;;;1.33;1.33;;;;;;;;5032999;28;50927;-64
2022/07/26 02:31:45;;;;;;;;;1.33;1.00;;;;;;;;5033214;28;51092;-65
2022/07/26 02:34:11;;;;;;;;;2.33;2.33;;;;;;;;5032387;28;51275;-64
2022/07/26 02:36:36;;;;;;;;;2.00;1.67;;;;;;;;5032566;28;51081;-63
2022/07/26 02:39:02;;;;;;;;;2.00;2.00;;;;;;;;5032079;28;50816;-64
2022/07/26 02:41:27;;;;;;;;;1.00;1.00;;;;;;;;5032098;28;51892;-64
2022/07/26 02:43:52;;;;;;;;;2.00;2.00;;;;;;;;5032385;28;51267;-64
2022/07/26 02:46:17;;;;;;;;;2.00;1.00;;;;;;;;5030992;28;52017;-64
2022/07/26 02:48:42;;;;;;;;;1.00;1.00;;;;;;;;5032226;28;50903;-64
2022/07/26 02:51:08;;;;;;;;;2.00;2.00;;;;;;;;5032296;28;50920;-64
2022/07/26 02:53:33;;;;;;;;;2.00;1.00;;;;;;;;5022343;28;51318;-63
2022/07/26 02:55:58;;;;;;;;;2.00;2.00;;;;;;;;5047760;28;51916;-64
2022/07/26 02:58:25;;;;;;;;;2.00;1.67;;;;;;;;5031395;28;51136;-63
2022/07/26 03:00:50;;;;;;;;;1.00;0.67;;;;;;;;5030215;28;51051;-64
2022/07/26 03:03:16;;;;;;;;;0.33;0.33;;;;;;;;5032233;28;51099;-64
2022/07/26 03:05:41;;;;;;;;;1.00;1.00;;;;;;;;5031664;28;51813;-63
2022/07/26 03:08:06;;;;;;;;;1.00;1.00;;;;;;;;5031916;28;51068;-63
2022/07/26 03:10:32;;;;;;;;;3.00;3.00;;;;;;;;5030866;28;51082;-63
2022/07/26 03:12:57;;;;;;;;;1.00;1.00;;;;;;;;5034021;28;51130;-63
2022/07/26 03:15:22;;;;;;;;;2.00;2.00;;;;;;;;5034388;28;51225;-64
2022/07/26 03:17:48;;;;;;;;;2.00;2.00;;;;;;;;5036415;28;51064;-64
2022/07/26 03:20:14;;;;;;;;;2.00;1.00;;;;;;;;5055124;28;51008;-64
2022/07/26 03:22:39;;;;;;;;;2.67;1.00;;;;;;;;5039278;28;50977;-64
2022/07/26 03:25:05;;;;;;;;;1.00;1.00;;;;;;;;5034578;28;51159;-64
2022/07/26 03:27:30;;;;;;;;;12.50;12.25;;;;;;;;5035125;28;50927;-65
2022/07/26 03:29:55;;;;;;;;;7.00;6.00;;;;;;;;5034816;28;50867;-64
2022/07/26 03:32:20;;;;;;;;;1.00;1.00;;;;;;;;5034842;28;51146;-63
2022/07/26 03:34:46;;;;;;;;;1.33;1.33;;;;;;;;5033812;28;52131;-64
2022/07/26 03:37:11;;;;;;;;;2.00;2.00;;;;;;;;5016657;28;50944;-64
2022/07/26 03:39:37;;;;;;;;;1.00;1.00;;;;;;;;5017216;28;50881;-63
2022/07/26 03:42:02;;;;;;;;;4.00;2.00;;;;;;;;5035772;28;51179;-64
2022/07/26 03:44:27;;;;;;;;;3.33;1.67;;;;;;;;5034401;28;51750;-64
2022/07/26 03:46:53;;;;;;;;;1.00;1.00;;;;;;;;5034179;28;51119;-64
2022/07/26 03:49:18;;;;;;;;;2.00;2.00;;;;;;;;5034163;28;50904;-64
2022/07/26 03:51:43;;;;;;;;;1.33;1.33;;;;;;;;5034819;28;50934;-64
2022/07/26 03:54:08;;;;;;;;;1.67;1.33;;;;;;;;5048907;28;52003;-64
2022/07/26 03:56:34;;;;;;;;;3.33;2.00;;;;;;;;5045416;28;50911;-64
2022/07/26 03:59:09;;;;;;;;;1.00;1.00;;;;;;;;5032394;28;50923;-64
2022/07/26 04:01:40;;;;;;;;;4.00;2.00;;;;;;;;5037235;28;51081;-64
2022/07/26 04:04:05;;;;;;;;;3.33;3.00;;;;;;;;5053763;28;51294;-65
2022/07/26 04:06:30;;;;;;;;;1.00;1.00;;;;;;;;5054357;28;50919;-64
2022/07/26 04:08:55;;;;;;;;;3.00;2.00;;;;;;;;5035068;28;50976;-63
2022/07/26 04:11:21;;;;;;;;;2.00;2.00;;;;;;;;5033482;28;50960;-64
2022/07/26 04:13:46;;;;;;;;;2.33;2.33;;;;;;;;5034230;28;52185;-64
2022/07/26 04:16:11;;;;;;;;;3.00;2.00;;;;;;;;5028198;28;51045;-64
2022/07/26 04:18:36;;;;;;;;;2.33;2.33;;;;;;;;5031688;28;50946;-63
2022/07/26 04:21:02;;;;;;;;;2.67;2.00;;;;;;;;5033454;28;50894;-63
2022/07/26 04:23:27;;;;;;;;;4.67;2.33;;;;;;;;5032629;28;51707;-64
2022/07/26 04:25:53;;;;;;;;;3.00;2.67;;;;;;;;5033955;28;51006;-63
2022/07/26 04:28:18;;;;;;;;;3.00;3.00;;;;;;;;5033776;28;51067;-64
2022/07/26 04:30:43;;;;;;;;;2.00;2.00;;;;;;;;5033981;28;51204;-63
2022/07/26 04:33:08;;;;;;;;;4.00;3.00;;;;;;;;5032680;28;52116;-63
2022/07/26 04:35:34;;;;;;;;;2.00;2.00;;;;;;;;5033635;28;50952;-65
2022/07/26 04:37:59;;;;;;;;;3.00;3.00;;;;;;;;5033437;28;51077;-64
2022/07/26 04:40:27;;;;;;;;;1.00;1.00;;;;;;;;5033979;28;51293;-64
2022/07/26 04:42:52;;;;;;;;;3.33;3.00;;;;;;;;5033390;28;52166;-64
2022/07/26 04:45:17;;;;;;;;;4.67;3.67;;;;;;;;5014543;28;51093;-64
2022/07/26 04:47:43;;;;;;;;;2.67;2.00;;;;;;;;5033599;28;51837;-64
2022/07/26 04:50:09;;;;;;;;;1.00;1.00;;;;;;;;5033881;28;51372;-64
2022/07/26 04:52:35;;;;;;;;;2.33;2.00;;;;;;;;5032947;28;51196;-63
2022/07/26 04:55:00;;;;;;;;;6.33;6.00;;;;;;;;5036029;28;51136;-63
2022/07/26 04:57:25;;;;;;;;;2.33;2.33;;;;;;;;5033410;28;51164;-64
2022/07/26 04:59:50;;;;;;;;;3.00;3.00;;;;;;;;5033921;28;50989;-65
2022/07/26 05:02:17;;;;;;;;;7.00;6.67;;;;;;;;5031475;28;52236;-65
2022/07/26 05:04:42;;;;;;;;;3.33;2.67;;;;;;;;5020992;28;50829;-63
2022/07/26 05:07:07;;;;;;;;;2.00;2.00;;;;;;;;5012923;28;51084;-64
2022/07/26 05:09:33;;;;;;;;;5.33;5.33;;;;;;;;5012270;28;51329;-64
2022/07/26 05:11:58;;;;;;;;;2.33;2.00;;;;;;;;5012975;28;50981;-64
2022/07/26 05:14:23;;;;;;;;;2.00;2.00;;;;;;;;5013396;28;50921;-64
2022/07/26 05:16:48;;;;;;;;;3.67;3.67;;;;;;;;5002299;28;51108;-64
2022/07/26 05:19:14;;;;;;;;;5.00;4.00;;;;;;;;5012751;28;51120;-65
2022/07/26 05:21:39;;;;;;;;;3.33;3.00;;;;;;;;5013272;28;51769;-65
2022/07/26 05:24:04;;;;;;;;;4.00;2.00;;;;;;;;5013688;28;51052;-65
2022/07/26 05:26:30;;;;;;;;;3.00;2.67;;;;;;;;5028089;28;51174;-64
2022/07/26 05:28:55;;;;;;;;;4.00;4.00;;;;;;;;5014230;28;51144;-65
2022/07/26 05:31:20;;;;;;;;;3.33;3.33;;;;;;;;5014059;28;51275;-64
2022/07/26 05:33:45;;;;;;;;;3.00;3.00;;;;;;;;5013438;28;50959;-65
2022/07/26 05:36:11;;;;;;;;;3.67;3.00;;;;;;;;5013525;28;50937;-64
2022/07/26 05:38:36;;;;;;;;;3.33;3.00;;;;;;;;5013114;28;51123;-64
2022/07/26 05:41:01;;;;;;;;;3.00;2.33;;;;;;;;5012555;28;53664;-65
2022/07/26 05:43:27;;;;;;;;;8.00;7.67;;;;;;;;5025899;28;51025;-67
2022/07/26 05:45:53;;;;;;;;;4.00;3.00;;;;;;;;5027449;28;51268;-65
2022/07/26 05:48:18;;;;;;;;;2.67;1.67;;;;;;;;5033424;28;50881;-63
2022/07/26 05:50:43;;;;;;;;;4.33;4.33;;;;;;;;5031795;28;51378;-65
2022/07/26 05:53:09;;;;;;;;;3.33;3.00;;;;;;;;5015290;28;51148;-65
2022/07/26 05:55:34;;;;;;;;;4.00;4.00;;;;;;;;5018945;28;50965;-64
2022/07/26 05:57:59;;;;;;;;;2.00;2.00;;;;;;;;5013738;28;50910;-64
2022/07/26 06:00:24;;;;;;;;;2.67;2.67;;;;;;;;5012297;28;52296;-64
2022/07/26 06:02:49;;;;;;;;;6.00;6.00;;;;;;;;5021704;28;51153;-64
2022/07/26 06:05:15;;;;;;;;;4.00;4.00;;;;;;;;5018901;28;51022;-64
2022/07/26 06:07:43;;;;;;;;;2.33;2.33;;;;;;;;5025629;28;50949;-65
2022/07/26 06:10:09;;;;;;;;;6.33;4.00;;;;;;;;5024540;28;53624;-64
2022/07/26 06:12:34;;;;;;;;;4.00;3.33;;;;;;;;5011209;28;50890;-65
2022/07/26 06:14:59;;;;;;;;;3.00;2.00;;;;;;;;5025607;28;51353;-65
2022/07/26 06:17:28;;;;;;;;;3.00;3.00;;;;;;;;5008195;28;51111;-63
2022/07/26 06:19:54;;;;;;;;;3.00;3.00;;;;;;;;5018711;28;51893;-64
2022/07/26 06:22:19;;;;;;;;;4.00;4.00;;;;;;;;5031959;28;51308;-64
2022/07/26 06:24:44;;;;;;;;;4.00;3.00;;;;;;;;5029227;28;51228;-66
2022/07/26 06:27:09;;;;;;;;;3.33;3.00;;;;;;;;5012511;28;51123;-64
2022/07/26 06:29:35;;;;;;;;;2.00;2.00;;;;;;;;5011746;28;52086;-64
2022/07/26 06:32:00;;;;;;;;;3.00;3.00;;;;;;;;5012110;28;51047;-63
2022/07/26 06:34:25;;;;;;;;;4.00;2.00;;;;;;;;5012057;28;51075;-64
2022/07/26 06:36:51;;;;;;;;;3.00;3.00;;;;;;;;5011071;28;51270;-64
2022/07/26 06:39:16;;;;;;;;;3.33;3.33;;;;;;;;5011789;28;51265;-65
2022/07/26 06:41:44;;;;;;;;;4.00;3.67;;;;;;;;5010079;28;50949;-64
2022/07/26 06:44:12;;;;;;;;;3.67;3.33;;;;;;;;5011640;28;51136;-65
2022/07/26 06:46:38;;;;;;;;;3.00;3.00;;;;;;;;5011492;28;51246;-64
2022/07/26 06:49:03;;;;;;;;;5.00;4.00;;;;;;;;5014011;28;51693;-64
2022/07/26 06:51:28;;;;;;;;;4.00;3.00;;;;;;;;5027490;28;50971;-65
2022/07/26 06:53:54;;;;;;;;;5.00;5.00;;;;;;;;5030510;28;51076;-65
2022/07/26 06:56:19;;;;;;;;;4.67;4.33;;;;;;;;5015281;28;51043;-65
2022/07/26 06:58:45;;;;;;;;;5.00;4.33;;;;;;;;5015061;28;50937;-65
2022/07/26 07:01:10;;;;;;;;;4.00;4.00;;;;;;;;5010937;28;51105;-64
2022/07/26 07:03:35;;;;;;;;;5.00;5.00;;;;;;;;5014645;28;51086;-64
2022/07/26 07:06:01;;;;;;;;;2.67;2.33;;;;;;;;5015145;28;51008;-65
2022/07/26 07:08:26;;;;;;;;;4.00;3.67;;;;;;;;5014544;28;51205;-65
2022/07/26 07:10:51;;;;;;;;;4.00;4.00;;;;;;;;5014753;28;50973;-64
2022/07/26 07:13:17;;;;;;;;;5.00;5.00;;;;;;;;5012535;28;51088;-64
2022/07/26 07:15:43;;;;;;;;;7.67;7.00;;;;;;;;5018282;28;51318;-65
2022/07/26 07:18:08;;;;;;;;;4.67;4.33;;;;;;;;5014496;28;51910;-63
2022/07/26 07:20:33;;;;;;;;;4.33;4.00;;;;;;;;5014326;28;50914;-63
2022/07/26 07:22:58;;;;;;;;;6.00;5.00;;;;;;;;5012525;28;51085;-65
2022/07/26 07:25:24;;;;;;;;;5.00;4.67;;;;;;;;5014872;28;51415;-63
2022/07/26 07:27:50;;;;;;;;;3.00;3.00;;;;;;;;5014455;28;52002;-65
2022/07/26 07:30:16;;;;;;;;;4.00;4.00;;;;;;;;5014416;28;51121;-65
2022/07/26 07:32:41;;;;;;;;;4.67;4.67;;;;;;;;5014736;28;51026;-64
2022/07/26 07:35:06;;;;;;;;;3.00;3.00;;;;;;;;5013744;28;51607;-64
2022/07/26 07:37:33;;;;;;;;;5.67;4.00;;;;;;;;5013930;28;51867;-64
2022/07/26 07:39:58;;;;;;;;;6.00;6.00;;;;;;;;5014457;28;51096;-63
2022/07/26 07:42:24;;;;;;;;;6.00;6.00;;;;;;;;5014422;28;51187;-64
2022/07/26 07:44:49;;;;;;;;;3.67;3.67;;;;;;;;5013477;28;51420;-64
2022/07/26 07:47:14;;;;;;;;;5.00;4.67;;;;;;;;5014178;28;52539;-65
2022/07/26 07:49:39;;;;;;;;;4.67;4.00;;;;;;;;5014306;28;51088;-65
2022/07/26 07:52:05;;;;;;;;;7.00;5.00;;;;;;;;5018097;28;51028;-65
2022/07/26 07:54:30;;;;;;;;;12.33;9.67;;;;;;;;5014210;28;50964;-64
2022/07/26 07:56:56;;;;;;;;;3.00;2.00;;;;;;;;5012893;28;51908;-64
2022/07/26 07:59:21;;;;;;;;;4.33;4.00;;;;;;;;5018491;28;50850;-64
2022/07/26 08:01:47;;;;;;;;;4.33;4.33;;;;;;;;5020107;28;50886;-64
2022/07/26 08:04:12;;;;;;;;;5.00;5.00;;;;;;;;5013767;28;50942;-64
2022/07/26 08:06:37;;;;;;;;;4.00;4.00;;;;;;;;5013907;28;51749;-65
2022/07/26 08:09:03;;;;;;;;;5.00;4.00;;;;;;;;5015394;28;50940;-64
2022/07/26 08:11:28;;;;;;;;;6.00;4.00;;;;;;;;5012002;28;50909;-64
2022/07/26 08:13:54;;;;;;;;;4.67;4.67;;;;;;;;5014331;28;51111;-65
2022/07/26 08:16:19;;;;;;;;;3.00;3.00;;;;;;;;5004129;28;51951;-65
2022/07/26 08:18:44;;;;;;;;;4.00;4.00;;;;;;;;5030583;28;51217;-64
2022/07/26 08:21:09;;;;;;;;;4.00;3.67;;;;;;;;5029078;28;51290;-64
2022/07/26 08:23:34;;;;;;;;;4.33;4.33;;;;;;;;5013512;28;51117;-65
2022/07/26 08:26:00;;;;;;;;;4.67;4.67;;;;;;;;5013661;28;51103;-65
2022/07/26 08:28:28;;;;;;;;;5.00;4.33;;;;;;;;5013513;28;51137;-64
2022/07/26 08:30:53;;;;;;;;;2.00;2.00;;;;;;;;5012171;28;51262;-65
2022/07/26 08:33:18;;;;;;;;;6.33;4.00;;;;;;;;5012954;28;50902;-65
2022/07/26 08:35:44;;;;;;;;;3.00;2.00;;;;;;;;5013615;28;52165;-65
2022/07/26 08:38:09;;;;;;;;;4.00;4.00;;;;;;;;5013123;28;51106;-64
2022/07/26 08:40:34;;;;;;;;;3.00;3.00;;;;;;;;5012414;28;50946;-65
2022/07/26 08:43:01;;;;;;;;;5.00;4.00;;;;;;;;5013575;28;50981;-63
2022/07/26 08:45:27;;;;;;;;;4.00;3.00;;;;;;;;5013326;28;51032;-65
2022/07/26 08:47:53;;;;;;;;;3.67;3.67;;;;;;;;5013200;28;50945;-65
2022/07/26 08:50:18;;;;;;;;;2.67;2.00;;;;;;;;5015313;28;51197;-64
2022/07/26 08:52:44;;;;;;;;;4.00;4.00;;;;;;;;5014798;28;50997;-66
2022/07/26 08:55:10;;;;;;;;;4.00;3.00;;;;;;;;5013088;28;51837;-65
2022/07/26 08:57:35;;;;;;;;;3.00;3.00;;;;;;;;5013453;28;50977;-65
2022/07/26 09:00:28;;;;;;;;;3.33;3.33;;;;;;;;5012066;28;51145;-64
2022/07/26 09:02:53;;;;;;;;;3.67;3.33;;;;;;;;5000649;28;50886;-64
2022/07/26 09:05:24;;;;;;;;;4.33;3.33;;;;;;;;5013365;28;52052;-64
2022/07/26 09:07:50;;;;;;;;;2.33;2.33;;;;;;;;5013777;28;51102;-64
2022/07/26 09:10:15;;;;;;;;;3.33;3.33;;;;;;;;4997126;28;50901;-64
2022/07/26 09:12:41;;;;;;;;;4.67;4.67;;;;;;;;5021804;28;50929;-64
2022/07/26 09:15:15;;;;;;;;;3.00;3.00;;;;;;;;5013742;28;51143;-64
2022/07/26 09:17:43;;;;;;;;;4.00;3.33;;;;;;;;5013475;28;50918;-65
2022/07/26 09:20:10;;;;;;;;;3.67;3.00;;;;;;;;5013166;28;51201;-64
2022/07/26 09:22:36;;;;;;;;;4.00;3.00;;;;;;;;5012026;28;51027;-63
2022/07/26 09:25:02;;;;;;;;;3.67;3.00;;;;;;;;5012467;28;52169;-64
2022/07/26 09:27:35;;;;;;;;;3.33;3.33;;;;;;;;5013008;28;51159;-64
2022/07/26 09:30:04;;;;;;;;;5.67;5.33;;;;;;;;5012993;28;51219;-65
2022/07/26 09:32:30;;;;;;;;;5.00;4.00;;;;;;;;4994452;28;51132;-66
2022/07/26 09:35:07;;;;;;;;;3.33;3.00;;;;;;;;5011174;28;52067;-64
2022/07/26 09:37:42;;;;;;;;;3.33;3.33;;;;;;;;5012582;28;50953;-64
2022/07/26 09:40:10;;;;;;;;;4.00;3.00;;;;;;;;5012304;28;50949;-64
2022/07/26 09:42:35;;;;;;;;;7.00;6.00;;;;;;;;5012554;28;51318;-64
2022/07/26 09:45:01;;;;;;;;;5.00;5.00;;;;;;;;5011087;28;51970;-65
2022/07/26 09:47:39;;;;;;;;;5.00;5.00;;;;;;;;5011995;28;51033;-64
2022/07/26 09:50:08;;;;;;;;;14.00;13.33;;;;;;;;5013168;28;51235;-65
2022/07/26 09:52:33;;;;;;;;;7.67;7.67;;;;;;;;5017842;28;50941;-64
2022/07/26 09:55:03;;;;;;;;;9.67;8.00;;;;;;;;5011923;28;51949;-64
2022/07/26 09:57:29;;;;;;;;;4.00;4.00;;;;;;;;5011459;28;50977;-64
2022/07/26 09:59:54;;;;;;;;;4.67;4.67;;;;;;;;5012438;28;50972;-66
2022/07/26 10:02:19;;;;;;;;;4.00;4.00;;;;;;;;5026437;28;50988;-64
2022/07/26 10:04:44;;;;;;;;;4.00;3.67;;;;;;;;5031515;28;51962;-65
2022/07/26 10:07:10;;;;;;;;;3.33;3.00;;;;;;;;5030973;28;50983;-66
2022/07/26 10:09:45;;;;;;;;;4.00;3.67;;;;;;;;5026428;28;51570;-66
2022/07/26 10:12:15;;;;;;;;;3.00;3.00;;;;;;;;5011437;28;50930;-64
2022/07/26 10:14:43;;;;;;;;;2.67;2.00;;;;;;;;5011598;28;51047;-65
2022/07/26 10:17:27;;;;;;;;;4.67;4.67;;;;;;;;5005994;28;51023;-65
2022/07/26 10:19:55;;;;;;;;;4.00;4.00;;;;;;;;5031732;28;51131;-66
2022/07/26 10:22:24;;;;;;;;;6.00;6.00;;;;;;;;5016903;28;51335;-65
2022/07/26 10:24:50;;;;;;;;;4.67;4.67;;;;;;;;5010830;28;51957;-64
2022/07/26 10:27:34;;;;;;;;;5.00;4.00;;;;;;;;5009557;28;51026;-64
2022/07/26 10:30:15;;;;;;;;;6.33;5.67;;;;;;;;5011587;28;51287;-65
2022/07/26 10:32:40;;;;;;;;;4.00;3.00;;;;;;;;5011904;28;51285;-65
2022/07/26 10:35:24;;;;;;;;;3.00;3.00;;;;;;;;5010112;28;51124;-65
2022/07/26 10:37:59;;;;;;;;;3.33;3.33;;;;;;;;5011402;28;51043;-65
2022/07/26 10:40:28;;;;;;;;;3.67;3.00;;;;;;;;4993728;28;51113;-66
2022/07/26 10:43:05;;;;;;;;;4.00;4.00;;;;;;;;5011325;28;50801;-66
2022/07/26 10:45:30;;;;;;;;;3.33;3.00;;;;;;;;5010163;28;52264;-66
2022/07/26 10:48:08;;;;;;;;;4.00;3.00;;;;;;;;5010817;28;51077;-65
2022/07/26 10:50:34;;;;;;;;;5.00;4.00;;;;;;;;5015507;28;51264;-65
2022/07/26 10:52:59;;;;;;;;;3.33;3.00;;;;;;;;5013918;28;51023;-65
2022/07/26 10:55:24;;;;;;;;;4.00;4.00;;;;;;;;5010457;28;52072;-65
2022/07/26 10:57:50;;;;;;;;;4.00;3.00;;;;;;;;5016964;28;51139;-65
2022/07/26 11:00:16;;;;;;;;;7.00;6.00;;;;;;;;5001578;28;51303;-65
2022/07/26 11:02:42;;;;;;;;;3.33;3.00;;;;;;;;5010377;28;51084;-65
2022/07/26 11:05:13;;;;;;;;;23.75;21.75;;;;;;;;5010124;28;51884;-65
2022/07/26 11:07:50;;;;;;;;;4.00;3.00;;;;;;;;5010606;28;51106;-65
2022/07/26 11:10:21;;;;;;;;;2.67;2.67;;;;;;;;5011160;28;50896;-65
2022/07/26 11:12:46;;;;;;;;;4.00;4.00;;;;;;;;5010832;28;51366;-65
2022/07/26 11:15:15;;;;;;;;;3.67;3.00;;;;;;;;5010993;28;51697;-65
2022/07/26 11:17:41;;;;;;;;;4.00;4.00;;;;;;;;5008725;28;50984;-65
2022/07/26 11:20:06;;;;;;;;;4.00;3.00;;;;;;;;5010524;28;51331;-65
2022/07/26 11:22:32;;;;;;;;;4.00;4.00;;;;;;;;5010567;28;51108;-65
2022/07/26 11:24:57;;;;;;;;;6.33;6.33;;;;;;;;5010249;28;51806;-65
2022/07/26 11:27:22;;;;;;;;;3.67;3.33;;;;;;;;5009597;28;50818;-65
2022/07/26 11:29:47;;;;;;;;;7.00;6.00;;;;;;;;5010567;28;50866;-64
2022/07/26 11:32:17;;;;;;;;;3.00;3.00;;;;;;;;5010364;28;51052;-65
2022/07/26 11:34:44;;;;;;;;;3.33;3.33;;;;;;;;5013180;28;51134;-65
2022/07/26 11:37:09;;;;;;;;;4.33;4.00;;;;;;;;5013667;28;50976;-65
2022/07/26 11:39:35;;;;;;;;;5.00;5.00;;;;;;;;5013036;28;51195;-65
2022/07/26 11:42:04;;;;;;;;;7.33;7.33;;;;;;;;5014011;28;50926;-65
2022/07/26 11:44:30;;;;;;;;;3.33;3.00;;;;;;;;5013702;28;51353;-65
2022/07/26 11:46:59;;;;;;;;;3.67;3.67;;;;;;;;5013707;28;50950;-65
2022/07/26 11:49:28;;;;;;;;;4.00;3.00;;;;;;;;5013566;28;51044;-65
2022/07/26 11:51:58;;;;;;;;;4.00;4.00;;;;;;;;5012390;28;50876;-65
2022/07/26 11:54:25;;;;;;;;;4.00;4.00;;;;;;;;5011684;28;51041;-65
2022/07/26 11:56:54;;;;;;;;;3.67;3.67;;;;;;;;5013143;28;50931;-65
2022/07/26 11:59:20;;;;;;;;;5.00;5.00;;;;;;;;5013020;28;50986;-65
2022/07/26 12:01:46;;;;;;;;;4.00;3.00;;;;;;;;5022906;28;50850;-64
2022/07/26 12:04:18;;;;;;;;;4.00;3.00;;;;;;;;5028239;28;52182;-65
2022/07/26 12:06:43;;;;;;;;;2.00;2.00;;;;;;;;5012784;28;51014;-65
2022/07/26 12:09:08;;;;;;;;;2.00;2.00;;;;;;;;5019059;28;51188;-65
2022/07/26 12:11:38;;;;;;;;;3.00;2.00;;;;;;;;5033108;28;51432;-65
2022/07/26 12:14:03;;;;;;;;;6.00;5.00;;;;;;;;5032239;28;52035;-65
2022/07/26 12:16:44;;;;;;;;;4.00;4.00;;;;;;;;5020961;28;51082;-65
2022/07/26 12:19:22;;;;;;;;;3.00;3.00;;;;;;;;5013014;28;50978;-64
2022/07/26 12:21:51;;;;;;;;;6.00;5.00;;;;;;;;5025791;28;51267;-66
2022/07/26 12:24:35;;;;;;;;;3.00;2.67;;;;;;;;5021488;28;52715;-65
2022/07/26 12:27:07;;;;;;;;;2.33;2.33;;;;;;;;5031826;28;51078;-65
2022/07/26 12:29:35;;;;;;;;;3.33;3.00;;;;;;;;5017679;28;50927;-65
2022/07/26 12:32:03;;;;;;;;;3.67;3.67;;;;;;;;5013041;28;51461;-64
2022/07/26 12:34:29;;;;;;;;;2.00;2.00;;;;;;;;5012798;28;51818;-65
2022/07/26 12:36:54;;;;;;;;;3.00;3.00;;;;;;;;5013154;28;51044;-65
2022/07/26 12:39:20;;;;;;;;;3.00;3.00;;;;;;;;5012328;28;50918;-65
2022/07/26 12:41:49;;;;;;;;;3.00;3.00;;;;;;;;5012724;28;51113;-65
2022/07/26 12:44:14;;;;;;;;;4.33;4.33;;;;;;;;5012918;28;51959;-64
2022/07/26 12:46:40;;;;;;;;;3.00;3.00;;;;;;;;5013627;28;51053;-65
2022/07/26 12:49:05;;;;;;;;;3.00;3.00;;;;;;;;5014782;28;51068;-64
2022/07/26 12:51:30;;;;;;;;;4.33;4.33;;;;;;;;5017111;28;51074;-64
2022/07/26 12:53:55;;;;;;;;;5.67;4.00;;;;;;;;5012311;28;52387;-64
2022/07/26 12:56:21;;;;;;;;;3.00;3.00;;;;;;;;5012980;28;51109;-65
2022/07/26 12:58:46;;;;;;;;;3.33;3.33;;;;;;;;5014277;28;50955;-64
2022/07/26 13:01:11;;;;;;;;;6.67;4.00;;;;;;;;5011173;28;51052;-65
2022/07/26 13:03:36;;;;;;;;;4.00;4.00;;;;;;;;5013075;28;51087;-65
2022/07/26 13:06:02;;;;;;;;;4.33;3.67;;;;;;;;5012268;28;50939;-65
2022/07/26 13:08:28;;;;;;;;;4.00;4.00;;;;;;;;5013330;28;51199;-64
2022/07/26 13:10:53;;;;;;;;;2.67;2.67;;;;;;;;5015189;28;51078;-64
2022/07/26 13:13:18;;;;;;;;;5.00;3.67;;;;;;;;5012483;28;51003;-65
2022/07/26 13:15:45;;;;;;;;;4.00;4.00;;;;;;;;5009285;28;51109;-65
2022/07/26 13:18:10;;;;;;;;;5.00;4.00;;;;;;;;5006657;28;51105;-65
2022/07/26 13:20:37;;;;;;;;;3.00;3.00;;;;;;;;5011777;28;50851;-69
2022/07/26 13:23:10;;;;;;;;;3.00;3.00;;;;;;;;5012116;28;51075;-66
2022/07/26 13:25:38;;;;;;;;;5.00;5.00;;;;;;;;5012920;28;51037;-67
2022/07/26 13:28:04;;;;;;;;;4.00;4.00;;;;;;;;5012479;28;52191;-65
2022/07/26 13:30:29;;;;;;;;;3.00;3.00;;;;;;;;5010832;28;51169;-64
2022/07/26 13:32:54;;;;;;;;;3.00;3.00;;;;;;;;5011898;28;51910;-65
2022/07/26 13:35:19;;;;;;;;;3.33;3.00;;;;;;;;5012594;28;51033;-66
2022/07/26 13:37:45;;;;;;;;;3.00;3.00;;;;;;;;5011167;28;50957;-65
2022/07/26 13:40:10;;;;;;;;;3.33;3.33;;;;;;;;5012220;28;51322;-64
2022/07/26 13:42:36;;;;;;;;;3.00;2.67;;;;;;;;5010098;28;52610;-64
2022/07/26 13:45:02;;;;;;;;;3.00;3.00;;;;;;;;5009908;28;50989;-65
2022/07/26 13:47:27;;;;;;;;;4.67;4.00;;;;;;;;5011098;28;51003;-66
2022/07/26 13:49:52;;;;;;;;;3.00;3.00;;;;;;;;5010656;28;51178;-65
2022/07/26 13:52:18;;;;;;;;;4.00;4.00;;;;;;;;5013174;28;51135;-64
2022/07/26 13:54:43;;;;;;;;;4.00;4.00;;;;;;;;5011676;28;50887;-64
2022/07/26 13:57:08;;;;;;;;;4.00;4.00;;;;;;;;5009724;28;51028;-65
2022/07/26 13:59:33;;;;;;;;;3.00;3.00;;;;;;;;5012621;28;51070;-66
2022/07/26 14:01:58;;;;;;;;;6.00;4.67;;;;;;;;5023781;28;50972;-65
2022/07/26 14:04:24;;;;;;;;;4.33;4.33;;;;;;;;5032123;28;50949;-65
2022/07/26 14:06:50;;;;;;;;;3.00;2.67;;;;;;;;5031352;28;50845;-66
2022/07/26 14:09:16;;;;;;;;;4.33;4.00;;;;;;;;5012842;28;50942;-65
2022/07/26 14:11:42;;;;;;;;;3.33;3.00;;;;;;;;5011037;28;51166;-65
2022/07/26 14:14:07;;;;;;;;;2.67;2.00;;;;;;;;5009294;28;51081;-64
2022/07/26 14:16:33;;;;;;;;;4.00;4.00;;;;;;;;4995936;28;51074;-66
2022/07/26 14:18:58;;;;;;;;;3.67;3.67;;;;;;;;5012063;28;50978;-64
2022/07/26 14:21:24;;;;;;;;;4.00;4.00;;;;;;;;5011198;28;51781;-65
2022/07/26 14:23:50;;;;;;;;;3.00;3.00;;;;;;;;5011503;28;51005;-65
2022/07/26 14:26:15;;;;;;;;;2.00;2.00;;;;;;;;5010627;28;51120;-66
2022/07/26 14:28:40;;;;;;;;;3.33;3.33;;;;;;;;5012216;28;51057;-66
2022/07/26 14:31:05;;;;;;;;;4.00;4.00;;;;;;;;5011217;28;51764;-65
2022/07/26 14:33:31;;;;;;;;;6.67;4.67;;;;;;;;5011756;28;51042;-66
2022/07/26 14:35:56;;;;;;;;;3.67;3.67;;;;;;;;5011483;28;51249;-66
2022/07/26 14:38:21;;;;;;;;;3.33;3.33;;;;;;;;5010319;28;51167;-66